sensor_id;sensor_type;location;lat;lon;timestamp;P1;durP1;ratioP1;P2;durP2;ratioP2
7795;SDS011;3942;51.518;6.912;2024-01-15T00:04:00;57.13;;;24.88;;
7795;SDS011;3942;51.518;6.912;2024-01-15T00:09:03;56.63;;;24.73;;
7795;SDS011;3942;51.518;6.912;2024-01-15T00:14:06;60.63;;;24.23;;
7795;SDS011;3942;51.518;6.912;2024-01-15T00:19:08;58.58;;;25.20;;
7795;SDS011;3942;51.518;6.912;2024-01-15T00:24:12;63.50;;;25.17;;
7795;SDS011;3942;51.518;6.912;2024-01-15T00:29:13;67.30;;;24.90;;
7795;SDS011;3942;51.518;6.912;2024-01-15T00:34:15;56.15;;;25.05;;
7795;SDS011;3942;51.518;6.912;2024-01-15T00:39:18;57.45;;;23.58;;
7795;SDS011;3942;51.518;6.912;2024-01-15T00:44:20;54.33;;;23.60;;
7795;SDS011;3942;51.518;6.912;2024-01-15T00:49:22;55.00;;;24.33;;
7795;SDS011;3942;51.518;6.912;2024-01-15T00:54:26;50.45;;;23.10;;
7795;SDS011;3942;51.518;6.912;2024-01-15T00:59:28;49.92;;;21.92;;
7795;SDS011;3942;51.518;6.912;2024-01-15T01:04:30;49.83;;;21.52;;
7795;SDS011;3942;51.518;6.912;2024-01-15T01:09:33;47.05;;;21.02;;
7795;SDS011;3942;51.518;6.912;2024-01-15T01:14:35;47.95;;;21.20;;
7795;SDS011;3942;51.518;6.912;2024-01-15T01:19:36;40.22;;;17.95;;
7795;SDS011;3942;51.518;6.912;2024-01-15T01:24:40;39.00;;;18.65;;
7795;SDS011;3942;51.518;6.912;2024-01-15T01:29:42;45.83;;;20.45;;
7795;SDS011;3942;51.518;6.912;2024-01-15T01:34:44;41.25;;;19.05;;
7795;SDS011;3942;51.518;6.912;2024-01-15T01:39:47;36.00;;;18.20;;
7795;SDS011;3942;51.518;6.912;2024-01-15T01:44:49;40.90;;;18.92;;
7795;SDS011;3942;51.518;6.912;2024-01-15T01:49:51;40.83;;;18.90;;
7795;SDS011;3942;51.518;6.912;2024-01-15T01:54:54;47.15;;;22.70;;
7795;SDS011;3942;51.518;6.912;2024-01-15T01:59:57;43.75;;;20.08;;
7795;SDS011;3942;51.518;6.912;2024-01-15T02:04:59;44.58;;;19.65;;
7795;SDS011;3942;51.518;6.912;2024-01-15T02:10:02;44.17;;;20.20;;
7795;SDS011;3942;51.518;6.912;2024-01-15T02:15:06;39.17;;;19.15;;
7795;SDS011;3942;51.518;6.912;2024-01-15T02:20:08;46.08;;;22.38;;
7795;SDS011;3942;51.518;6.912;2024-01-15T02:25:12;42.75;;;21.17;;
7795;SDS011;3942;51.518;6.912;2024-01-15T02:30:14;37.03;;;18.23;;
7795;SDS011;3942;51.518;6.912;2024-01-15T02:35:18;42.22;;;18.40;;
7795;SDS011;3942;51.518;6.912;2024-01-15T02:40:21;40.03;;;19.13;;
7795;SDS011;3942;51.518;6.912;2024-01-15T02:45:23;47.08;;;19.42;;
7795;SDS011;3942;51.518;6.912;2024-01-15T02:50:25;43.38;;;19.27;;
7795;SDS011;3942;51.518;6.912;2024-01-15T02:55:28;37.35;;;16.00;;
7795;SDS011;3942;51.518;6.912;2024-01-15T03:00:30;36.78;;;17.23;;
7795;SDS011;3942;51.518;6.912;2024-01-15T03:05:32;31.02;;;14.18;;
7795;SDS011;3942;51.518;6.912;2024-01-15T03:10:35;29.05;;;14.38;;
7795;SDS011;3942;51.518;6.912;2024-01-15T03:15:37;29.17;;;13.43;;
7795;SDS011;3942;51.518;6.912;2024-01-15T03:20:39;26.23;;;13.15;;
7795;SDS011;3942;51.518;6.912;2024-01-15T03:25:42;25.73;;;12.10;;
7795;SDS011;3942;51.518;6.912;2024-01-15T03:30:44;22.95;;;11.55;;
7795;SDS011;3942;51.518;6.912;2024-01-15T03:35:46;29.73;;;11.88;;
7795;SDS011;3942;51.518;6.912;2024-01-15T03:40:50;28.48;;;10.43;;
7795;SDS011;3942;51.518;6.912;2024-01-15T03:45:51;21.13;;;12.43;;
7795;SDS011;3942;51.518;6.912;2024-01-15T03:50:53;18.27;;;10.55;;
7795;SDS011;3942;51.518;6.912;2024-01-15T03:55:56;24.23;;;11.10;;
7795;SDS011;3942;51.518;6.912;2024-01-15T04:00:58;18.30;;;9.90;;
7795;SDS011;3942;51.518;6.912;2024-01-15T04:06:00;24.58;;;9.80;;
7795;SDS011;3942;51.518;6.912;2024-01-15T04:11:04;17.83;;;8.98;;
7795;SDS011;3942;51.518;6.912;2024-01-15T04:16:06;17.25;;;9.30;;
7795;SDS011;3942;51.518;6.912;2024-01-15T04:21:08;18.63;;;8.70;;
7795;SDS011;3942;51.518;6.912;2024-01-15T04:26:11;23.45;;;11.15;;
7795;SDS011;3942;51.518;6.912;2024-01-15T04:31:20;25.80;;;10.65;;
7795;SDS011;3942;51.518;6.912;2024-01-15T04:36:22;28.88;;;12.82;;
7795;SDS011;3942;51.518;6.912;2024-01-15T04:41:25;20.90;;;10.55;;
7795;SDS011;3942;51.518;6.912;2024-01-15T04:46:27;24.65;;;11.70;;
7795;SDS011;3942;51.518;6.912;2024-01-15T04:51:29;118.28;;;57.85;;
7795;SDS011;3942;51.518;6.912;2024-01-15T04:56:32;24.05;;;12.45;;
7795;SDS011;3942;51.518;6.912;2024-01-15T05:01:35;22.63;;;10.95;;
7795;SDS011;3942;51.518;6.912;2024-01-15T05:06:37;27.20;;;12.07;;
7795;SDS011;3942;51.518;6.912;2024-01-15T05:11:40;19.55;;;8.05;;
7795;SDS011;3942;51.518;6.912;2024-01-15T05:16:46;23.30;;;8.50;;
7795;SDS011;3942;51.518;6.912;2024-01-15T05:21:48;21.60;;;10.35;;
7795;SDS011;3942;51.518;6.912;2024-01-15T05:26:52;21.58;;;9.48;;
7795;SDS011;3942;51.518;6.912;2024-01-15T05:31:53;18.98;;;7.75;;
7795;SDS011;3942;51.518;6.912;2024-01-15T05:36:56;23.40;;;11.00;;
7795;SDS011;3942;51.518;6.912;2024-01-15T05:41:59;22.83;;;10.93;;
7795;SDS011;3942;51.518;6.912;2024-01-15T05:47:01;17.58;;;9.65;;
7795;SDS011;3942;51.518;6.912;2024-01-15T05:52:04;18.85;;;10.05;;
7795;SDS011;3942;51.518;6.912;2024-01-15T05:57:07;24.83;;;10.63;;
7795;SDS011;3942;51.518;6.912;2024-01-15T06:02:09;31.98;;;11.82;;
7795;SDS011;3942;51.518;6.912;2024-01-15T06:07:11;20.85;;;9.70;;
7795;SDS011;3942;51.518;6.912;2024-01-15T06:12:15;13.70;;;8.32;;
7795;SDS011;3942;51.518;6.912;2024-01-15T06:17:17;17.75;;;9.30;;
7795;SDS011;3942;51.518;6.912;2024-01-15T06:22:19;15.35;;;9.15;;
7795;SDS011;3942;51.518;6.912;2024-01-15T06:27:22;20.13;;;10.43;;
7795;SDS011;3942;51.518;6.912;2024-01-15T06:32:24;24.63;;;12.90;;
7795;SDS011;3942;51.518;6.912;2024-01-15T06:37:26;25.08;;;12.70;;
7795;SDS011;3942;51.518;6.912;2024-01-15T06:42:29;27.50;;;12.10;;
7795;SDS011;3942;51.518;6.912;2024-01-15T06:47:31;33.00;;;13.50;;
7795;SDS011;3942;51.518;6.912;2024-01-15T06:52:33;23.08;;;11.90;;
7795;SDS011;3942;51.518;6.912;2024-01-15T06:57:37;20.70;;;10.00;;
7795;SDS011;3942;51.518;6.912;2024-01-15T07:02:39;23.35;;;11.48;;
7795;SDS011;3942;51.518;6.912;2024-01-15T07:07:40;18.10;;;9.57;;
7795;SDS011;3942;51.518;6.912;2024-01-15T07:12:44;20.00;;;9.75;;
7795;SDS011;3942;51.518;6.912;2024-01-15T07:17:46;16.52;;;7.97;;
7795;SDS011;3942;51.518;6.912;2024-01-15T07:22:48;19.42;;;8.65;;
7795;SDS011;3942;51.518;6.912;2024-01-15T07:27:51;14.40;;;8.02;;
7795;SDS011;3942;51.518;6.912;2024-01-15T07:32:54;19.02;;;9.40;;
7795;SDS011;3942;51.518;6.912;2024-01-15T07:37:56;21.70;;;9.57;;
7795;SDS011;3942;51.518;6.912;2024-01-15T07:42:59;14.70;;;6.50;;
7795;SDS011;3942;51.518;6.912;2024-01-15T07:48:01;114.03;;;53.58;;
7795;SDS011;3942;51.518;6.912;2024-01-15T07:53:05;116.35;;;45.38;;
7795;SDS011;3942;51.518;6.912;2024-01-15T07:58:08;50.53;;;20.88;;
7795;SDS011;3942;51.518;6.912;2024-01-15T08:03:10;33.10;;;12.27;;
7795;SDS011;3942;51.518;6.912;2024-01-15T08:08:12;27.83;;;12.05;;
7795;SDS011;3942;51.518;6.912;2024-01-15T08:13:16;35.45;;;16.33;;
7795;SDS011;3942;51.518;6.912;2024-01-15T08:18:18;30.40;;;14.80;;
7795;SDS011;3942;51.518;6.912;2024-01-15T08:23:21;27.02;;;13.63;;
7795;SDS011;3942;51.518;6.912;2024-01-15T08:28:24;63.40;;;27.30;;
7795;SDS011;3942;51.518;6.912;2024-01-15T08:33:27;120.20;;;44.17;;
7795;SDS011;3942;51.518;6.912;2024-01-15T08:38:29;60.75;;;23.15;;
7795;SDS011;3942;51.518;6.912;2024-01-15T08:43:32;102.30;;;43.08;;
7795;SDS011;3942;51.518;6.912;2024-01-15T08:48:34;103.57;;;39.28;;
7795;SDS011;3942;51.518;6.912;2024-01-15T08:53:36;39.28;;;17.30;;
7795;SDS011;3942;51.518;6.912;2024-01-15T08:58:40;22.30;;;9.63;;
7795;SDS011;3942;51.518;6.912;2024-01-15T09:03:42;18.48;;;9.55;;
7795;SDS011;3942;51.518;6.912;2024-01-15T09:08:44;31.27;;;12.85;;
7795;SDS011;3942;51.518;6.912;2024-01-15T09:13:47;20.80;;;9.82;;
7795;SDS011;3942;51.518;6.912;2024-01-15T09:18:50;24.25;;;9.05;;
7795;SDS011;3942;51.518;6.912;2024-01-15T09:23:52;25.23;;;10.32;;
7795;SDS011;3942;51.518;6.912;2024-01-15T09:28:55;26.98;;;12.05;;
7795;SDS011;3942;51.518;6.912;2024-01-15T09:33:58;47.92;;;16.23;;
7795;SDS011;3942;51.518;6.912;2024-01-15T09:39:02;48.72;;;17.52;;
7795;SDS011;3942;51.518;6.912;2024-01-15T09:44:07;38.72;;;14.75;;
7795;SDS011;3942;51.518;6.912;2024-01-15T09:49:11;38.08;;;14.82;;
7795;SDS011;3942;51.518;6.912;2024-01-15T09:54:13;42.55;;;16.65;;
7795;SDS011;3942;51.518;6.912;2024-01-15T09:59:18;42.38;;;15.43;;
7795;SDS011;3942;51.518;6.912;2024-01-15T10:04:21;59.10;;;19.33;;
7795;SDS011;3942;51.518;6.912;2024-01-15T10:09:23;37.58;;;16.75;;
7795;SDS011;3942;51.518;6.912;2024-01-15T10:14:26;39.40;;;16.75;;
7795;SDS011;3942;51.518;6.912;2024-01-15T10:19:30;47.72;;;19.40;;
7795;SDS011;3942;51.518;6.912;2024-01-15T10:24:32;32.83;;;14.40;;
7795;SDS011;3942;51.518;6.912;2024-01-15T10:29:36;33.65;;;15.93;;
7795;SDS011;3942;51.518;6.912;2024-01-15T10:34:38;35.85;;;12.73;;
7795;SDS011;3942;51.518;6.912;2024-01-15T10:39:40;21.48;;;11.32;;
7795;SDS011;3942;51.518;6.912;2024-01-15T10:44:44;26.40;;;10.10;;
7795;SDS011;3942;51.518;6.912;2024-01-15T10:49:47;24.05;;;11.13;;
7795;SDS011;3942;51.518;6.912;2024-01-15T10:54:49;23.27;;;9.73;;
7795;SDS011;3942;51.518;6.912;2024-01-15T10:59:53;31.27;;;11.25;;
7795;SDS011;3942;51.518;6.912;2024-01-15T11:04:55;25.50;;;10.07;;
7795;SDS011;3942;51.518;6.912;2024-01-15T11:09:57;24.55;;;8.25;;
7795;SDS011;3942;51.518;6.912;2024-01-15T11:15:02;16.80;;;6.00;;
7795;SDS011;3942;51.518;6.912;2024-01-15T11:20:05;21.92;;;9.52;;
7795;SDS011;3942;51.518;6.912;2024-01-15T11:25:12;21.80;;;10.68;;
7795;SDS011;3942;51.518;6.912;2024-01-15T11:30:16;32.30;;;12.50;;
7795;SDS011;3942;51.518;6.912;2024-01-15T11:35:20;26.70;;;12.65;;
7795;SDS011;3942;51.518;6.912;2024-01-15T11:40:36;36.00;;;14.75;;
7795;SDS011;3942;51.518;6.912;2024-01-15T11:45:40;37.22;;;12.32;;
7795;SDS011;3942;51.518;6.912;2024-01-15T11:50:43;42.20;;;17.17;;
7795;SDS011;3942;51.518;6.912;2024-01-15T11:55:45;30.65;;;14.82;;
7795;SDS011;3942;51.518;6.912;2024-01-15T12:00:50;32.42;;;15.38;;
7795;SDS011;3942;51.518;6.912;2024-01-15T12:05:52;26.33;;;12.32;;
7795;SDS011;3942;51.518;6.912;2024-01-15T12:10:54;32.60;;;12.23;;
7795;SDS011;3942;51.518;6.912;2024-01-15T12:15:59;27.70;;;11.93;;
7795;SDS011;3942;51.518;6.912;2024-01-15T12:21:04;22.02;;;11.50;;
7795;SDS011;3942;51.518;6.912;2024-01-15T12:26:06;18.02;;;7.05;;
7795;SDS011;3942;51.518;6.912;2024-01-15T12:31:09;22.35;;;7.75;;
7795;SDS011;3942;51.518;6.912;2024-01-15T12:36:12;28.42;;;10.60;;
7795;SDS011;3942;51.518;6.912;2024-01-15T12:41:14;22.67;;;8.00;;
7795;SDS011;3942;51.518;6.912;2024-01-15T12:46:18;19.15;;;6.63;;
7795;SDS011;3942;51.518;6.912;2024-01-15T12:51:24;18.52;;;4.88;;
7795;SDS011;3942;51.518;6.912;2024-01-15T12:56:26;25.65;;;10.00;;
7795;SDS011;3942;51.518;6.912;2024-01-15T13:01:30;9.82;;;4.30;;
7795;SDS011;3942;51.518;6.912;2024-01-15T13:06:32;24.65;;;6.38;;
7795;SDS011;3942;51.518;6.912;2024-01-15T13:11:34;9.20;;;3.47;;
7795;SDS011;3942;51.518;6.912;2024-01-15T13:16:37;7.80;;;3.25;;
7795;SDS011;3942;51.518;6.912;2024-01-15T13:21:39;10.23;;;3.40;;
7795;SDS011;3942;51.518;6.912;2024-01-15T13:26:42;13.13;;;3.70;;
7795;SDS011;3942;51.518;6.912;2024-01-15T13:31:45;9.00;;;4.32;;
7795;SDS011;3942;51.518;6.912;2024-01-15T13:36:47;15.50;;;5.88;;
7795;SDS011;3942;51.518;6.912;2024-01-15T13:41:50;12.00;;;4.38;;
7795;SDS011;3942;51.518;6.912;2024-01-15T13:46:53;9.30;;;3.92;;
7795;SDS011;3942;51.518;6.912;2024-01-15T13:51:55;10.63;;;5.25;;
7795;SDS011;3942;51.518;6.912;2024-01-15T13:56:58;11.13;;;3.55;;
7795;SDS011;3942;51.518;6.912;2024-01-15T14:02:01;10.15;;;4.20;;
7795;SDS011;3942;51.518;6.912;2024-01-15T14:07:03;18.92;;;8.32;;
7795;SDS011;3942;51.518;6.912;2024-01-15T14:12:06;13.00;;;6.68;;
7795;SDS011;3942;51.518;6.912;2024-01-15T14:17:10;24.98;;;7.88;;
7795;SDS011;3942;51.518;6.912;2024-01-15T14:22:11;10.23;;;5.55;;
7795;SDS011;3942;51.518;6.912;2024-01-15T14:27:14;13.40;;;5.18;;
7795;SDS011;3942;51.518;6.912;2024-01-15T14:32:18;21.15;;;7.75;;
7795;SDS011;3942;51.518;6.912;2024-01-15T14:37:20;17.77;;;6.70;;
7795;SDS011;3942;51.518;6.912;2024-01-15T14:42:22;8.57;;;3.20;;
7795;SDS011;3942;51.518;6.912;2024-01-15T14:47:25;4.45;;;2.00;;
7795;SDS011;3942;51.518;6.912;2024-01-15T14:52:27;6.97;;;1.95;;
7795;SDS011;3942;51.518;6.912;2024-01-15T14:57:29;6.43;;;2.20;;
7795;SDS011;3942;51.518;6.912;2024-01-15T15:02:33;6.57;;;1.73;;
7795;SDS011;3942;51.518;6.912;2024-01-15T15:07:35;15.00;;;4.20;;
7795;SDS011;3942;51.518;6.912;2024-01-15T15:12:37;8.25;;;3.53;;
7795;SDS011;3942;51.518;6.912;2024-01-15T15:17:41;4.28;;;2.45;;
7795;SDS011;3942;51.518;6.912;2024-01-15T15:22:43;3.95;;;1.98;;
7795;SDS011;3942;51.518;6.912;2024-01-15T15:27:45;3.17;;;2.03;;
7795;SDS011;3942;51.518;6.912;2024-01-15T15:32:48;10.45;;;4.13;;
7795;SDS011;3942;51.518;6.912;2024-01-15T15:37:51;6.30;;;3.08;;
7795;SDS011;3942;51.518;6.912;2024-01-15T15:42:53;26.42;;;9.90;;
7795;SDS011;3942;51.518;6.912;2024-01-15T15:47:56;5.30;;;2.70;;
7795;SDS011;3942;51.518;6.912;2024-01-15T15:52:58;6.25;;;2.97;;
7795;SDS011;3942;51.518;6.912;2024-01-15T15:58:01;7.63;;;2.97;;
7795;SDS011;3942;51.518;6.912;2024-01-15T16:03:05;5.50;;;3.05;;
7795;SDS011;3942;51.518;6.912;2024-01-15T16:08:07;5.70;;;3.17;;
7795;SDS011;3942;51.518;6.912;2024-01-15T16:13:09;10.90;;;4.30;;
7795;SDS011;3942;51.518;6.912;2024-01-15T16:18:13;15.73;;;6.43;;
7795;SDS011;3942;51.518;6.912;2024-01-15T16:23:14;9.13;;;4.90;;
7795;SDS011;3942;51.518;6.912;2024-01-15T16:28:16;10.68;;;6.10;;
7795;SDS011;3942;51.518;6.912;2024-01-15T16:33:19;14.25;;;7.40;;
7795;SDS011;3942;51.518;6.912;2024-01-15T16:38:22;19.88;;;8.02;;
7795;SDS011;3942;51.518;6.912;2024-01-15T16:43:24;14.68;;;6.82;;
7795;SDS011;3942;51.518;6.912;2024-01-15T16:48:28;13.93;;;6.80;;
7795;SDS011;3942;51.518;6.912;2024-01-15T16:53:30;28.13;;;8.65;;
7795;SDS011;3942;51.518;6.912;2024-01-15T16:58:32;21.25;;;10.00;;
7795;SDS011;3942;51.518;6.912;2024-01-15T17:03:36;19.17;;;9.05;;
7795;SDS011;3942;51.518;6.912;2024-01-15T17:08:38;18.48;;;9.93;;
7795;SDS011;3942;51.518;6.912;2024-01-15T17:13:40;29.88;;;13.18;;
7795;SDS011;3942;51.518;6.912;2024-01-15T17:18:44;20.90;;;10.27;;
7795;SDS011;3942;51.518;6.912;2024-01-15T17:23:46;27.90;;;9.63;;
7795;SDS011;3942;51.518;6.912;2024-01-15T17:28:48;24.35;;;8.38;;
7795;SDS011;3942;51.518;6.912;2024-01-15T17:33:52;17.13;;;7.80;;
7795;SDS011;3942;51.518;6.912;2024-01-15T17:38:54;17.15;;;8.10;;
7795;SDS011;3942;51.518;6.912;2024-01-15T17:43:57;18.52;;;7.25;;
7795;SDS011;3942;51.518;6.912;2024-01-15T17:49:00;15.48;;;7.47;;
7795;SDS011;3942;51.518;6.912;2024-01-15T17:54:03;18.55;;;7.35;;
7795;SDS011;3942;51.518;6.912;2024-01-15T17:59:08;25.00;;;8.95;;
7795;SDS011;3942;51.518;6.912;2024-01-15T18:04:12;29.00;;;9.65;;
7795;SDS011;3942;51.518;6.912;2024-01-15T18:09:15;30.80;;;10.35;;
7795;SDS011;3942;51.518;6.912;2024-01-15T18:14:19;52.00;;;22.38;;
7795;SDS011;3942;51.518;6.912;2024-01-15T18:19:22;23.05;;;9.38;;
7795;SDS011;3942;51.518;6.912;2024-01-15T18:24:24;21.58;;;9.77;;
7795;SDS011;3942;51.518;6.912;2024-01-15T18:29:27;28.77;;;10.45;;
7795;SDS011;3942;51.518;6.912;2024-01-15T18:34:30;19.80;;;6.32;;
7795;SDS011;3942;51.518;6.912;2024-01-15T18:39:32;19.00;;;6.82;;
7795;SDS011;3942;51.518;6.912;2024-01-15T18:44:35;12.48;;;5.55;;
7795;SDS011;3942;51.518;6.912;2024-01-15T18:49:38;11.18;;;7.13;;
7795;SDS011;3942;51.518;6.912;2024-01-15T18:54:40;10.90;;;4.57;;
7795;SDS011;3942;51.518;6.912;2024-01-15T18:59:42;12.95;;;4.53;;
7795;SDS011;3942;51.518;6.912;2024-01-15T19:04:47;15.63;;;6.40;;
7795;SDS011;3942;51.518;6.912;2024-01-15T19:09:48;19.83;;;5.43;;
7795;SDS011;3942;51.518;6.912;2024-01-15T19:14:51;28.40;;;7.18;;
7795;SDS011;3942;51.518;6.912;2024-01-15T19:19:55;17.33;;;7.93;;
7795;SDS011;3942;51.518;6.912;2024-01-15T19:24:57;17.75;;;7.95;;
7795;SDS011;3942;51.518;6.912;2024-01-15T19:29:59;16.77;;;6.32;;
7795;SDS011;3942;51.518;6.912;2024-01-15T19:35:03;14.93;;;5.88;;
7795;SDS011;3942;51.518;6.912;2024-01-15T19:40:06;18.75;;;5.68;;
7795;SDS011;3942;51.518;6.912;2024-01-15T19:45:08;17.17;;;5.82;;
7795;SDS011;3942;51.518;6.912;2024-01-15T19:50:11;21.15;;;5.53;;
7795;SDS011;3942;51.518;6.912;2024-01-15T19:55:14;14.45;;;4.63;;
7795;SDS011;3942;51.518;6.912;2024-01-15T20:00:16;21.85;;;6.25;;
7795;SDS011;3942;51.518;6.912;2024-01-15T20:05:19;12.15;;;4.28;;
7795;SDS011;3942;51.518;6.912;2024-01-15T20:10:22;12.27;;;4.57;;
7795;SDS011;3942;51.518;6.912;2024-01-15T20:15:25;11.48;;;4.07;;
7795;SDS011;3942;51.518;6.912;2024-01-15T20:20:30;15.45;;;5.88;;
7795;SDS011;3942;51.518;6.912;2024-01-15T20:25:31;8.55;;;4.03;;
7795;SDS011;3942;51.518;6.912;2024-01-15T20:30:34;10.00;;;4.43;;
7795;SDS011;3942;51.518;6.912;2024-01-15T20:35:37;11.77;;;4.45;;
7795;SDS011;3942;51.518;6.912;2024-01-15T20:40:39;16.38;;;4.97;;
7795;SDS011;3942;51.518;6.912;2024-01-15T20:45:41;21.52;;;5.30;;
7795;SDS011;3942;51.518;6.912;2024-01-15T20:50:45;17.58;;;6.35;;
7795;SDS011;3942;51.518;6.912;2024-01-15T20:55:47;23.20;;;5.63;;
7795;SDS011;3942;51.518;6.912;2024-01-15T21:00:49;11.93;;;6.25;;
7795;SDS011;3942;51.518;6.912;2024-01-15T21:05:53;23.35;;;8.80;;
7795;SDS011;3942;51.518;6.912;2024-01-15T21:10:55;17.45;;;8.25;;
7795;SDS011;3942;51.518;6.912;2024-01-15T21:15:56;27.38;;;9.50;;
7795;SDS011;3942;51.518;6.912;2024-01-15T21:21:00;23.63;;;9.75;;
7795;SDS011;3942;51.518;6.912;2024-01-15T21:26:02;28.55;;;10.82;;
7795;SDS011;3942;51.518;6.912;2024-01-15T21:31:04;25.15;;;9.02;;
7795;SDS011;3942;51.518;6.912;2024-01-15T21:36:07;23.27;;;9.13;;
7795;SDS011;3942;51.518;6.912;2024-01-15T21:41:09;26.73;;;10.40;;
7795;SDS011;3942;51.518;6.912;2024-01-15T21:46:11;26.33;;;10.85;;
7795;SDS011;3942;51.518;6.912;2024-01-15T21:51:15;28.33;;;11.23;;
7795;SDS011;3942;51.518;6.912;2024-01-15T21:56:17;14.05;;;8.48;;
7795;SDS011;3942;51.518;6.912;2024-01-15T22:01:19;19.73;;;9.30;;
7795;SDS011;3942;51.518;6.912;2024-01-15T22:06:22;25.95;;;9.45;;
7795;SDS011;3942;51.518;6.912;2024-01-15T22:11:25;28.13;;;12.93;;
7795;SDS011;3942;51.518;6.912;2024-01-15T22:16:27;28.63;;;12.48;;
7795;SDS011;3942;51.518;6.912;2024-01-15T22:21:30;29.55;;;14.13;;
7795;SDS011;3942;51.518;6.912;2024-01-15T22:26:32;32.88;;;12.80;;
7795;SDS011;3942;51.518;6.912;2024-01-15T22:31:34;24.92;;;14.07;;
7795;SDS011;3942;51.518;6.912;2024-01-15T22:36:38;21.90;;;11.70;;
7795;SDS011;3942;51.518;6.912;2024-01-15T22:41:40;28.90;;;12.55;;
7795;SDS011;3942;51.518;6.912;2024-01-15T22:46:41;24.00;;;11.52;;
7795;SDS011;3942;51.518;6.912;2024-01-15T22:51:45;22.55;;;9.77;;
7795;SDS011;3942;51.518;6.912;2024-01-15T22:56:47;20.15;;;9.82;;
7795;SDS011;3942;51.518;6.912;2024-01-15T23:01:49;24.70;;;10.10;;
7795;SDS011;3942;51.518;6.912;2024-01-15T23:06:53;22.00;;;12.88;;
7795;SDS011;3942;51.518;6.912;2024-01-15T23:11:55;24.13;;;11.65;;
7795;SDS011;3942;51.518;6.912;2024-01-15T23:16:57;27.17;;;14.38;;
7795;SDS011;3942;51.518;6.912;2024-01-15T23:22:01;18.63;;;10.32;;
7795;SDS011;3942;51.518;6.912;2024-01-15T23:27:03;21.30;;;9.57;;
7795;SDS011;3942;51.518;6.912;2024-01-15T23:32:06;22.58;;;10.05;;
7795;SDS011;3942;51.518;6.912;2024-01-15T23:37:09;23.20;;;11.52;;
7795;SDS011;3942;51.518;6.912;2024-01-15T23:42:11;19.77;;;8.65;;
7795;SDS011;3942;51.518;6.912;2024-01-15T23:47:13;19.40;;;8.98;;
7795;SDS011;3942;51.518;6.912;2024-01-15T23:52:18;15.57;;;6.63;;
7795;SDS011;3942;51.518;6.912;2024-01-15T23:57:20;19.27;;;9.77;;
